sensor_id;sensor_type;location;lat;lon;timestamp;temperature;humidity
64937;SHT30;51452;47.698;19.050;2022-12-05T00:01:25;7.81;73.21
64937;SHT30;51452;47.698;19.050;2022-12-05T00:03:53;7.82;73.24
64937;SHT30;51452;47.698;19.050;2022-12-05T00:06:19;7.77;73.23
64937;SHT30;51452;47.698;19.050;2022-12-05T00:08:46;7.77;73.30
64937;SHT30;51452;47.698;19.050;2022-12-05T00:11:14;7.70;73.34
64937;SHT30;51452;47.698;19.050;2022-12-05T00:13:40;7.70;73.37
64937;SHT30;51452;47.698;19.050;2022-12-05T00:16:07;7.70;73.35
64937;SHT30;51452;47.698;19.050;2022-12-05T00:18:33;7.72;73.22
64937;SHT30;51452;47.698;19.050;2022-12-05T00:20:59;7.71;73.30
64937;SHT30;51452;47.698;19.050;2022-12-05T00:23:24;7.68;73.24
64937;SHT30;51452;47.698;19.050;2022-12-05T00:25:49;7.71;73.22
64937;SHT30;51452;47.698;19.050;2022-12-05T00:28:15;7.71;73.26
64937;SHT30;51452;47.698;19.050;2022-12-05T00:30:40;7.74;73.25
64937;SHT30;51452;47.698;19.050;2022-12-05T00:33:06;7.72;73.22
64937;SHT30;51452;47.698;19.050;2022-12-05T00:35:32;7.71;73.15
64937;SHT30;51452;47.698;19.050;2022-12-05T00:37:57;7.72;73.11
64937;SHT30;51452;47.698;19.050;2022-12-05T00:40:23;7.71;73.11
64937;SHT30;51452;47.698;19.050;2022-12-05T00:42:48;7.70;73.24
64937;SHT30;51452;47.698;19.050;2022-12-05T00:45:13;7.67;73.04
64937;SHT30;51452;47.698;19.050;2022-12-05T00:47:39;7.65;73.05
64937;SHT30;51452;47.698;19.050;2022-12-05T00:50:05;7.65;73.18
64937;SHT30;51452;47.698;19.050;2022-12-05T00:52:30;7.70;73.10
64937;SHT30;51452;47.698;19.050;2022-12-05T00:54:56;7.71;73.02
64937;SHT30;51452;47.698;19.050;2022-12-05T00:57:21;7.72;73.04
64937;SHT30;51452;47.698;19.050;2022-12-05T00:59:47;7.68;73.03
64937;SHT30;51452;47.698;19.050;2022-12-05T01:02:12;7.67;73.20
64937;SHT30;51452;47.698;19.050;2022-12-05T01:04:37;7.65;73.25
64937;SHT30;51452;47.698;19.050;2022-12-05T01:07:03;7.62;73.17
64937;SHT30;51452;47.698;19.050;2022-12-05T01:09:29;7.61;73.17
64937;SHT30;51452;47.698;19.050;2022-12-05T01:11:54;7.62;73.21
64937;SHT30;51452;47.698;19.050;2022-12-05T01:14:22;7.67;73.20
64937;SHT30;51452;47.698;19.050;2022-12-05T01:16:49;7.61;73.40
64937;SHT30;51452;47.698;19.050;2022-12-05T01:19:22;7.54;73.52
64937;SHT30;51452;47.698;19.050;2022-12-05T01:21:48;7.55;73.56
64937;SHT30;51452;47.698;19.050;2022-12-05T01:24:14;7.54;73.66
64937;SHT30;51452;47.698;19.050;2022-12-05T01:26:40;7.52;73.67
64937;SHT30;51452;47.698;19.050;2022-12-05T01:29:06;7.52;73.69
64937;SHT30;51452;47.698;19.050;2022-12-05T01:31:36;7.52;73.67
64937;SHT30;51452;47.698;19.050;2022-12-05T01:34:04;7.52;73.53
64937;SHT30;51452;47.698;19.050;2022-12-05T01:36:30;7.54;73.60
64937;SHT30;51452;47.698;19.050;2022-12-05T01:38:56;7.47;73.71
64937;SHT30;51452;47.698;19.050;2022-12-05T01:41:45;7.44;73.69
64937;SHT30;51452;47.698;19.050;2022-12-05T01:46:48;7.52;73.47
64937;SHT30;51452;47.698;19.050;2022-12-05T01:49:21;7.48;73.40
64937;SHT30;51452;47.698;19.050;2022-12-05T01:51:52;7.47;73.50
64937;SHT30;51452;47.698;19.050;2022-12-05T01:54:20;7.46;73.71
64937;SHT30;51452;47.698;19.050;2022-12-05T01:56:49;7.44;73.72
64937;SHT30;51452;47.698;19.050;2022-12-05T01:59:17;7.38;73.93
64937;SHT30;51452;47.698;19.050;2022-12-05T02:01:44;7.40;73.91
64937;SHT30;51452;47.698;19.050;2022-12-05T02:04:10;7.43;73.83
64937;SHT30;51452;47.698;19.050;2022-12-05T02:06:35;7.44;73.77
64937;SHT30;51452;47.698;19.050;2022-12-05T02:09:01;7.47;73.67
64937;SHT30;51452;47.698;19.050;2022-12-05T02:11:27;7.50;73.70
64937;SHT30;51452;47.698;19.050;2022-12-05T02:30:39;7.37;74.04
64937;SHT30;51452;47.698;19.050;2022-12-05T02:33:21;7.33;74.01
64937;SHT30;51452;47.698;19.050;2022-12-05T02:38:39;7.40;73.91
64937;SHT30;51452;47.698;19.050;2022-12-05T02:41:24;7.40;73.68
64937;SHT30;51452;47.698;19.050;2022-12-05T02:43:59;7.40;73.87
64937;SHT30;51452;47.698;19.050;2022-12-05T02:46:29;7.40;73.73
64937;SHT30;51452;47.698;19.050;2022-12-05T02:48:58;7.40;73.72
64937;SHT30;51452;47.698;19.050;2022-12-05T02:51:28;7.43;73.68
64937;SHT30;51452;47.698;19.050;2022-12-05T02:53:58;7.43;73.71
64937;SHT30;51452;47.698;19.050;2022-12-05T02:56:26;7.51;73.55
64937;SHT30;51452;47.698;19.050;2022-12-05T02:58:54;7.50;73.55
64937;SHT30;51452;47.698;19.050;2022-12-05T03:01:23;7.52;73.44
64937;SHT30;51452;47.698;19.050;2022-12-05T03:03:49;7.51;73.51
64937;SHT30;51452;47.698;19.050;2022-12-05T03:06:19;7.48;73.49
64937;SHT30;51452;47.698;19.050;2022-12-05T03:08:56;7.50;73.53
64937;SHT30;51452;47.698;19.050;2022-12-05T03:11:23;7.51;73.57
64937;SHT30;51452;47.698;19.050;2022-12-05T03:13:51;7.54;73.50
64937;SHT30;51452;47.698;19.050;2022-12-05T03:16:50;7.44;73.64
64937;SHT30;51452;47.698;19.050;2022-12-05T03:22:05;7.43;73.85
64937;SHT30;51452;47.698;19.050;2022-12-05T03:24:33;7.43;73.85
64937;SHT30;51452;47.698;19.050;2022-12-05T03:30:12;7.44;73.76
64937;SHT30;51452;47.698;19.050;2022-12-05T03:32:41;7.43;74.02
64937;SHT30;51452;47.698;19.050;2022-12-05T03:35:27;7.37;73.95
64937;SHT30;51452;47.698;19.050;2022-12-05T03:38:00;7.41;74.02
64937;SHT30;51452;47.698;19.050;2022-12-05T03:45:59;7.38;74.26
64937;SHT30;51452;47.698;19.050;2022-12-05T03:48:46;7.31;74.50
64937;SHT30;51452;47.698;19.050;2022-12-05T03:51:16;7.27;74.77
64937;SHT30;51452;47.698;19.050;2022-12-05T03:53:51;7.28;74.86
64937;SHT30;51452;47.698;19.050;2022-12-05T03:56:22;7.26;74.92
64937;SHT30;51452;47.698;19.050;2022-12-05T03:59:01;7.27;74.88
64937;SHT30;51452;47.698;19.050;2022-12-05T04:01:30;7.33;74.92
64937;SHT30;51452;47.698;19.050;2022-12-05T04:04:01;7.33;74.95
64937;SHT30;51452;47.698;19.050;2022-12-05T04:06:32;7.33;75.03
64937;SHT30;51452;47.698;19.050;2022-12-05T04:09:02;7.34;74.88
64937;SHT30;51452;47.698;19.050;2022-12-05T04:11:32;7.30;74.83
64937;SHT30;51452;47.698;19.050;2022-12-05T04:14:04;7.31;74.85
64937;SHT30;51452;47.698;19.050;2022-12-05T04:16:37;7.24;75.09
64937;SHT30;51452;47.698;19.050;2022-12-05T04:19:41;7.17;75.39
64937;SHT30;51452;47.698;19.050;2022-12-05T04:22:27;7.20;75.33
64937;SHT30;51452;47.698;19.050;2022-12-05T04:24:55;7.14;75.40
64937;SHT30;51452;47.698;19.050;2022-12-05T04:27:51;7.12;75.45
64937;SHT30;51452;47.698;19.050;2022-12-05T04:30:21;7.12;75.66
64937;SHT30;51452;47.698;19.050;2022-12-05T04:33:07;7.04;75.74
64937;SHT30;51452;47.698;19.050;2022-12-05T04:35:39;7.06;75.82
64937;SHT30;51452;47.698;19.050;2022-12-05T04:38:12;7.06;75.86
64937;SHT30;51452;47.698;19.050;2022-12-05T04:40:44;7.09;75.85
64937;SHT30;51452;47.698;19.050;2022-12-05T04:43:11;7.09;75.77
64937;SHT30;51452;47.698;19.050;2022-12-05T04:45:39;7.12;75.85
64937;SHT30;51452;47.698;19.050;2022-12-05T04:48:10;7.13;75.65
64937;SHT30;51452;47.698;19.050;2022-12-05T04:50:37;7.10;75.78
64937;SHT30;51452;47.698;19.050;2022-12-05T04:53:04;7.12;75.90
64937;SHT30;51452;47.698;19.050;2022-12-05T04:55:32;7.10;75.85
64937;SHT30;51452;47.698;19.050;2022-12-05T04:58:09;7.02;75.82
64937;SHT30;51452;47.698;19.050;2022-12-05T05:03:21;6.96;76.19
64937;SHT30;51452;47.698;19.050;2022-12-05T05:05:50;6.97;76.33
64937;SHT30;51452;47.698;19.050;2022-12-05T05:08:19;6.97;76.28
64937;SHT30;51452;47.698;19.050;2022-12-05T05:11:08;6.92;76.37
64937;SHT30;51452;47.698;19.050;2022-12-05T05:13:35;6.92;76.61
64937;SHT30;51452;47.698;19.050;2022-12-05T05:16:00;6.92;76.64
64937;SHT30;51452;47.698;19.050;2022-12-05T05:18:25;6.95;76.64
64937;SHT30;51452;47.698;19.050;2022-12-05T05:20:51;6.96;76.70
64937;SHT30;51452;47.698;19.050;2022-12-05T05:23:16;6.93;76.54
64937;SHT30;51452;47.698;19.050;2022-12-05T05:25:41;6.97;76.62
64937;SHT30;51452;47.698;19.050;2022-12-05T05:28:07;7.02;76.66
64937;SHT30;51452;47.698;19.050;2022-12-05T05:30:32;7.06;76.43
64937;SHT30;51452;47.698;19.050;2022-12-05T05:32:58;7.03;76.41
64937;SHT30;51452;47.698;19.050;2022-12-05T05:35:24;7.04;76.46
64937;SHT30;51452;47.698;19.050;2022-12-05T05:37:49;7.04;76.44
64937;SHT30;51452;47.698;19.050;2022-12-05T05:40:14;7.00;76.46
64937;SHT30;51452;47.698;19.050;2022-12-05T05:42:41;6.95;76.70
64937;SHT30;51452;47.698;19.050;2022-12-05T05:45:07;6.96;76.85
64937;SHT30;51452;47.698;19.050;2022-12-05T05:47:33;6.96;76.90
64937;SHT30;51452;47.698;19.050;2022-12-05T05:49:58;6.99;77.00
64937;SHT30;51452;47.698;19.050;2022-12-05T05:52:24;7.03;76.86
64937;SHT30;51452;47.698;19.050;2022-12-05T05:54:49;6.97;76.91
64937;SHT30;51452;47.698;19.050;2022-12-05T05:57:15;6.97;76.99
64937;SHT30;51452;47.698;19.050;2022-12-05T05:59:40;6.99;77.07
64937;SHT30;51452;47.698;19.050;2022-12-05T06:02:05;6.97;77.15
64937;SHT30;51452;47.698;19.050;2022-12-05T06:04:30;6.97;77.19
64937;SHT30;51452;47.698;19.050;2022-12-05T06:06:58;6.99;77.11
64937;SHT30;51452;47.698;19.050;2022-12-05T06:09:23;6.96;77.17
64937;SHT30;51452;47.698;19.050;2022-12-05T06:11:49;6.95;77.33
64937;SHT30;51452;47.698;19.050;2022-12-05T06:14:14;6.93;77.39
64937;SHT30;51452;47.698;19.050;2022-12-05T06:16:39;6.97;77.45
64937;SHT30;51452;47.698;19.050;2022-12-05T06:19:04;7.02;77.33
64937;SHT30;51452;47.698;19.050;2022-12-05T06:21:30;7.02;77.20
64937;SHT30;51452;47.698;19.050;2022-12-05T06:23:55;7.06;77.18
64937;SHT30;51452;47.698;19.050;2022-12-05T06:26:21;7.09;77.05
64937;SHT30;51452;47.698;19.050;2022-12-05T06:28:47;7.03;77.01
64937;SHT30;51452;47.698;19.050;2022-12-05T06:31:15;7.00;77.35
64937;SHT30;51452;47.698;19.050;2022-12-05T06:33:42;7.04;77.33
64937;SHT30;51452;47.698;19.050;2022-12-05T06:36:09;7.07;77.34
64937;SHT30;51452;47.698;19.050;2022-12-05T06:38:35;7.07;77.32
64937;SHT30;51452;47.698;19.050;2022-12-05T06:41:04;7.06;77.25
64937;SHT30;51452;47.698;19.050;2022-12-05T06:43:30;7.02;77.47
64937;SHT30;51452;47.698;19.050;2022-12-05T06:45:55;7.03;77.55
64937;SHT30;51452;47.698;19.050;2022-12-05T06:48:21;7.04;77.40
64937;SHT30;51452;47.698;19.050;2022-12-05T06:50:51;7.00;77.64
64937;SHT30;51452;47.698;19.050;2022-12-05T06:53:18;7.00;77.83
64937;SHT30;51452;47.698;19.050;2022-12-05T06:55:43;6.99;77.80
64937;SHT30;51452;47.698;19.050;2022-12-05T06:58:09;7.00;77.69
64937;SHT30;51452;47.698;19.050;2022-12-05T07:00:34;6.99;77.77
64937;SHT30;51452;47.698;19.050;2022-12-05T07:03:18;6.97;77.98
64937;SHT30;51452;47.698;19.050;2022-12-05T07:05:44;7.00;78.11
64937;SHT30;51452;47.698;19.050;2022-12-05T07:08:09;7.03;77.96
64937;SHT30;51452;47.698;19.050;2022-12-05T07:10:34;7.07;77.99
64937;SHT30;51452;47.698;19.050;2022-12-05T07:13:00;7.09;77.83
64937;SHT30;51452;47.698;19.050;2022-12-05T07:15:25;7.13;77.68
64937;SHT30;51452;47.698;19.050;2022-12-05T07:17:50;7.09;77.80
64937;SHT30;51452;47.698;19.050;2022-12-05T07:20:16;7.10;77.92
64937;SHT30;51452;47.698;19.050;2022-12-05T07:22:42;7.12;78.00
64937;SHT30;51452;47.698;19.050;2022-12-05T07:25:09;7.12;77.85
64937;SHT30;51452;47.698;19.050;2022-12-05T07:27:34;7.09;78.03
64937;SHT30;51452;47.698;19.050;2022-12-05T07:29:59;7.13;78.02
64937;SHT30;51452;47.698;19.050;2022-12-05T07:32:25;7.13;77.96
64937;SHT30;51452;47.698;19.050;2022-12-05T07:34:50;7.12;78.03
64937;SHT30;51452;47.698;19.050;2022-12-05T07:37:15;7.10;78.11
64937;SHT30;51452;47.698;19.050;2022-12-05T07:39:41;7.12;78.05
64937;SHT30;51452;47.698;19.050;2022-12-05T07:42:06;7.13;78.08
64937;SHT30;51452;47.698;19.050;2022-12-05T07:44:32;7.16;77.91
64937;SHT30;51452;47.698;19.050;2022-12-05T07:46:57;7.19;77.91
64937;SHT30;51452;47.698;19.050;2022-12-05T07:49:23;7.23;77.85
64937;SHT30;51452;47.698;19.050;2022-12-05T07:51:49;7.27;77.73
64937;SHT30;51452;47.698;19.050;2022-12-05T07:54:14;7.31;77.51
64937;SHT30;51452;47.698;19.050;2022-12-05T07:56:39;7.35;77.42
64937;SHT30;51452;47.698;19.050;2022-12-05T07:59:04;7.33;77.21
64937;SHT30;51452;47.698;19.050;2022-12-05T08:01:30;7.38;77.29
64937;SHT30;51452;47.698;19.050;2022-12-05T08:03:57;7.38;77.29
64937;SHT30;51452;47.698;19.050;2022-12-05T08:06:27;7.38;76.99
64937;SHT30;51452;47.698;19.050;2022-12-05T08:08:53;7.43;77.02
64937;SHT30;51452;47.698;19.050;2022-12-05T08:11:21;7.38;77.14
64937;SHT30;51452;47.698;19.050;2022-12-05T08:13:48;7.44;77.05
64937;SHT30;51452;47.698;19.050;2022-12-05T08:16:16;7.47;76.96
64937;SHT30;51452;47.698;19.050;2022-12-05T08:18:42;7.47;77.00
64937;SHT30;51452;47.698;19.050;2022-12-05T08:21:18;7.50;76.75
64937;SHT30;51452;47.698;19.050;2022-12-05T08:23:44;7.47;77.01
64937;SHT30;51452;47.698;19.050;2022-12-05T08:26:13;7.47;77.00
64937;SHT30;51452;47.698;19.050;2022-12-05T08:28:40;7.51;77.01
64937;SHT30;51452;47.698;19.050;2022-12-05T08:31:25;7.50;76.76
64937;SHT30;51452;47.698;19.050;2022-12-05T08:33:51;7.52;76.77
64937;SHT30;51452;47.698;19.050;2022-12-05T08:36:18;7.55;76.80
64937;SHT30;51452;47.698;19.050;2022-12-05T08:38:44;7.61;76.71
64937;SHT30;51452;47.698;19.050;2022-12-05T08:41:13;7.60;76.65
64937;SHT30;51452;47.698;19.050;2022-12-05T08:43:39;7.64;76.48
64937;SHT30;51452;47.698;19.050;2022-12-05T08:46:04;7.68;76.48
64937;SHT30;51452;47.698;19.050;2022-12-05T08:48:30;7.71;76.39
64937;SHT30;51452;47.698;19.050;2022-12-05T08:50:57;7.77;76.13
64937;SHT30;51452;47.698;19.050;2022-12-05T08:53:22;7.77;76.15
64937;SHT30;51452;47.698;19.050;2022-12-05T08:55:48;7.79;76.04
64937;SHT30;51452;47.698;19.050;2022-12-05T08:58:13;7.79;75.86
64937;SHT30;51452;47.698;19.050;2022-12-05T09:00:39;7.79;75.89
64937;SHT30;51452;47.698;19.050;2022-12-05T09:03:05;7.78;76.08
64937;SHT30;51452;47.698;19.050;2022-12-05T09:05:31;7.77;76.17
64937;SHT30;51452;47.698;19.050;2022-12-05T09:07:57;7.81;76.04
64937;SHT30;51452;47.698;19.050;2022-12-05T09:10:23;7.82;75.96
64937;SHT30;51452;47.698;19.050;2022-12-05T09:12:48;7.83;75.98
64937;SHT30;51452;47.698;19.050;2022-12-05T09:15:16;7.85;76.01
64937;SHT30;51452;47.698;19.050;2022-12-05T09:17:41;7.85;75.84
64937;SHT30;51452;47.698;19.050;2022-12-05T09:20:07;7.88;75.76
64937;SHT30;51452;47.698;19.050;2022-12-05T09:22:33;7.92;75.72
64937;SHT30;51452;47.698;19.050;2022-12-05T09:24:58;7.93;75.69
64937;SHT30;51452;47.698;19.050;2022-12-05T09:27:27;7.96;75.53
64937;SHT30;51452;47.698;19.050;2022-12-05T09:29:52;8.01;75.43
64937;SHT30;51452;47.698;19.050;2022-12-05T09:32:18;8.03;75.47
64937;SHT30;51452;47.698;19.050;2022-12-05T09:34:43;8.01;75.43
64937;SHT30;51452;47.698;19.050;2022-12-05T09:37:08;8.05;75.54
64937;SHT30;51452;47.698;19.050;2022-12-05T09:39:34;8.05;75.27
64937;SHT30;51452;47.698;19.050;2022-12-05T09:42:34;7.96;75.26
64937;SHT30;51452;47.698;19.050;2022-12-05T09:50:29;8.03;75.22
64937;SHT30;51452;47.698;19.050;2022-12-05T09:55:54;8.05;75.29
64937;SHT30;51452;47.698;19.050;2022-12-05T10:00:56;8.10;75.22
64937;SHT30;51452;47.698;19.050;2022-12-05T10:03:51;8.06;75.02
64937;SHT30;51452;47.698;19.050;2022-12-05T10:06:25;8.07;75.10
64937;SHT30;51452;47.698;19.050;2022-12-05T10:17:03;8.07;75.00
64937;SHT30;51452;47.698;19.050;2022-12-05T10:19:34;8.07;75.34
64937;SHT30;51452;47.698;19.050;2022-12-05T10:24:36;8.13;75.14
64937;SHT30;51452;47.698;19.050;2022-12-05T10:27:06;8.13;75.26
64937;SHT30;51452;47.698;19.050;2022-12-05T10:29:43;8.07;75.32
64937;SHT30;51452;47.698;19.050;2022-12-05T10:32:15;8.10;75.30
64937;SHT30;51452;47.698;19.050;2022-12-05T10:34:42;8.16;75.24
64937;SHT30;51452;47.698;19.050;2022-12-05T10:37:20;8.09;75.02
64937;SHT30;51452;47.698;19.050;2022-12-05T10:39:48;8.10;75.32
64937;SHT30;51452;47.698;19.050;2022-12-05T10:42:16;8.10;75.32
64937;SHT30;51452;47.698;19.050;2022-12-05T10:44:43;8.10;75.34
64937;SHT30;51452;47.698;19.050;2022-12-05T10:47:10;8.13;75.34
64937;SHT30;51452;47.698;19.050;2022-12-05T10:49:36;8.19;75.14
64937;SHT30;51452;47.698;19.050;2022-12-05T10:52:03;8.22;74.94
64937;SHT30;51452;47.698;19.050;2022-12-05T10:54:30;8.21;74.95
64937;SHT30;51452;47.698;19.050;2022-12-05T10:56:56;8.25;74.95
64937;SHT30;51452;47.698;19.050;2022-12-05T10:59:24;8.21;74.91
64937;SHT30;51452;47.698;19.050;2022-12-05T11:01:55;8.23;74.91
64937;SHT30;51452;47.698;19.050;2022-12-05T11:04:28;8.28;74.86
64937;SHT30;51452;47.698;19.050;2022-12-05T11:07:02;8.29;74.81
64937;SHT30;51452;47.698;19.050;2022-12-05T11:09:31;8.28;74.98
64937;SHT30;51452;47.698;19.050;2022-12-05T11:15:09;8.30;74.73
64937;SHT30;51452;47.698;19.050;2022-12-05T11:17:44;8.34;74.77
64937;SHT30;51452;47.698;19.050;2022-12-05T11:22:42;8.33;75.14
64937;SHT30;51452;47.698;19.050;2022-12-05T11:25:28;8.29;74.83
64937;SHT30;51452;47.698;19.050;2022-12-05T11:27:56;8.34;74.96
64937;SHT30;51452;47.698;19.050;2022-12-05T11:30:23;8.33;74.88
64937;SHT30;51452;47.698;19.050;2022-12-05T11:33:10;8.29;74.62
64937;SHT30;51452;47.698;19.050;2022-12-05T11:35:36;8.22;74.97
64937;SHT30;51452;47.698;19.050;2022-12-05T11:38:03;8.23;75.19
64937;SHT30;51452;47.698;19.050;2022-12-05T11:51:38;8.30;75.12
64937;SHT30;51452;47.698;19.050;2022-12-05T11:57:01;8.30;75.26
64937;SHT30;51452;47.698;19.050;2022-12-05T12:05:32;8.13;75.62
64937;SHT30;51452;47.698;19.050;2022-12-05T12:08:28;8.09;75.73
64937;SHT30;51452;47.698;19.050;2022-12-05T12:22:25;7.96;76.27
64937;SHT30;51452;47.698;19.050;2022-12-05T12:25:07;7.99;76.40
64937;SHT30;51452;47.698;19.050;2022-12-05T12:30:46;7.96;76.38
64937;SHT30;51452;47.698;19.050;2022-12-05T12:33:26;7.96;76.56
64937;SHT30;51452;47.698;19.050;2022-12-05T12:42:31;8.12;76.13
64937;SHT30;51452;47.698;19.050;2022-12-05T12:44:51;8.13;76.09
64937;SHT30;51452;47.698;19.050;2022-12-05T12:50:39;8.16;76.05
64937;SHT30;51452;47.698;19.050;2022-12-05T12:58:41;8.23;75.72
64937;SHT30;51452;47.698;19.050;2022-12-05T13:04:07;8.13;75.81
64937;SHT30;51452;47.698;19.050;2022-12-05T13:07:43;8.13;75.90
64937;SHT30;51452;47.698;19.050;2022-12-05T13:09:41;8.16;76.04
64937;SHT30;51452;47.698;19.050;2022-12-05T13:12:13;8.19;75.90
64937;SHT30;51452;47.698;19.050;2022-12-05T13:14:51;8.22;75.84
64937;SHT30;51452;47.698;19.050;2022-12-05T13:17:19;8.21;75.76
64937;SHT30;51452;47.698;19.050;2022-12-05T13:19:48;8.13;75.92
64937;SHT30;51452;47.698;19.050;2022-12-05T13:22:15;8.19;76.04
64937;SHT30;51452;47.698;19.050;2022-12-05T13:24:42;8.22;76.00
64937;SHT30;51452;47.698;19.050;2022-12-05T13:27:14;8.22;75.94
64937;SHT30;51452;47.698;19.050;2022-12-05T13:29:42;8.23;75.95
64937;SHT30;51452;47.698;19.050;2022-12-05T13:34:49;8.23;75.84
64937;SHT30;51452;47.698;19.050;2022-12-05T13:40:20;8.14;75.88
64937;SHT30;51452;47.698;19.050;2022-12-05T13:43:04;8.12;76.25
64937;SHT30;51452;47.698;19.050;2022-12-05T13:45:30;8.13;76.24
64937;SHT30;51452;47.698;19.050;2022-12-05T13:55:33;8.05;76.39
64937;SHT30;51452;47.698;19.050;2022-12-05T14:00:47;8.03;76.63
64937;SHT30;51452;47.698;19.050;2022-12-05T14:05:52;8.14;76.47
64937;SHT30;51452;47.698;19.050;2022-12-05T14:15:47;7.99;76.79
64937;SHT30;51452;47.698;19.050;2022-12-05T14:31:44;7.75;77.74
64937;SHT30;51452;47.698;19.050;2022-12-05T14:34:32;7.77;77.84
64937;SHT30;51452;47.698;19.050;2022-12-05T14:37:00;7.75;77.90
64937;SHT30;51452;47.698;19.050;2022-12-05T14:42:04;7.70;78.28
64937;SHT30;51452;47.698;19.050;2022-12-05T14:44:31;7.68;78.46
64937;SHT30;51452;47.698;19.050;2022-12-05T14:47:02;7.70;78.38
64937;SHT30;51452;47.698;19.050;2022-12-05T14:49:56;7.71;78.25
64937;SHT30;51452;47.698;19.050;2022-12-05T14:52:26;7.62;78.63
64937;SHT30;51452;47.698;19.050;2022-12-05T14:54:57;7.68;78.35
64937;SHT30;51452;47.698;19.050;2022-12-05T14:57:24;7.72;78.36
64937;SHT30;51452;47.698;19.050;2022-12-05T14:59:53;7.68;78.70
64937;SHT30;51452;47.698;19.050;2022-12-05T15:02:42;7.67;78.59
64937;SHT30;51452;47.698;19.050;2022-12-05T15:05:25;7.70;78.52
64937;SHT30;51452;47.698;19.050;2022-12-05T15:07:53;7.72;78.66
64937;SHT30;51452;47.698;19.050;2022-12-05T15:10:20;7.71;78.70
64937;SHT30;51452;47.698;19.050;2022-12-05T15:12:49;7.68;78.86
64937;SHT30;51452;47.698;19.050;2022-12-05T15:20:40;7.68;78.98
64937;SHT30;51452;47.698;19.050;2022-12-05T15:29:11;7.58;79.56
64937;SHT30;51452;47.698;19.050;2022-12-05T15:32:03;7.54;79.76
64937;SHT30;51452;47.698;19.050;2022-12-05T15:38:07;7.55;79.97
64937;SHT30;51452;47.698;19.050;2022-12-05T15:42:52;7.60;79.84
64937;SHT30;51452;47.698;19.050;2022-12-05T15:48:10;7.70;79.69
64937;SHT30;51452;47.698;19.050;2022-12-05T15:50:41;7.70;79.65
64937;SHT30;51452;47.698;19.050;2022-12-05T15:55:46;7.68;79.76
64937;SHT30;51452;47.698;19.050;2022-12-05T15:58:35;7.68;79.85
64937;SHT30;51452;47.698;19.050;2022-12-05T16:03:57;7.65;80.15
64937;SHT30;51452;47.698;19.050;2022-12-05T16:06:36;7.72;80.12
64937;SHT30;51452;47.698;19.050;2022-12-05T16:09:07;7.78;79.88
64937;SHT30;51452;47.698;19.050;2022-12-05T16:11:34;7.79;80.00
64937;SHT30;51452;47.698;19.050;2022-12-05T16:14:03;7.82;79.80
64937;SHT30;51452;47.698;19.050;2022-12-05T16:16:34;7.77;80.15
64937;SHT30;51452;47.698;19.050;2022-12-05T16:19:21;7.71;80.31
64937;SHT30;51452;47.698;19.050;2022-12-05T16:24:41;7.67;80.75
64937;SHT30;51452;47.698;19.050;2022-12-05T16:27:17;7.71;80.70
64937;SHT30;51452;47.698;19.050;2022-12-05T16:29:45;7.74;80.61
64937;SHT30;51452;47.698;19.050;2022-12-05T16:32:24;7.68;80.58
64937;SHT30;51452;47.698;19.050;2022-12-05T16:34:52;7.78;80.63
64937;SHT30;51452;47.698;19.050;2022-12-05T16:37:22;7.77;80.67
64937;SHT30;51452;47.698;19.050;2022-12-05T16:39:48;7.81;80.65
64937;SHT30;51452;47.698;19.050;2022-12-05T16:44:55;7.85;80.36
64937;SHT30;51452;47.698;19.050;2022-12-05T16:50:33;7.89;80.25
64937;SHT30;51452;47.698;19.050;2022-12-05T16:53:19;7.95;80.09
64937;SHT30;51452;47.698;19.050;2022-12-05T16:55:45;8.01;80.10
64937;SHT30;51452;47.698;19.050;2022-12-05T16:58:16;8.05;79.92
64937;SHT30;51452;47.698;19.050;2022-12-05T17:00:44;8.05;79.85
64937;SHT30;51452;47.698;19.050;2022-12-05T17:03:13;8.06;79.76
64937;SHT30;51452;47.698;19.050;2022-12-05T17:05:38;8.10;79.78
64937;SHT30;51452;47.698;19.050;2022-12-05T17:08:04;8.13;79.64
64937;SHT30;51452;47.698;19.050;2022-12-05T17:10:29;8.14;79.59
64937;SHT30;51452;47.698;19.050;2022-12-05T17:12:55;8.16;79.61
64937;SHT30;51452;47.698;19.050;2022-12-05T17:15:21;8.16;79.56
64937;SHT30;51452;47.698;19.050;2022-12-05T17:17:46;8.10;79.71
64937;SHT30;51452;47.698;19.050;2022-12-05T17:20:12;8.07;79.91
64937;SHT30;51452;47.698;19.050;2022-12-05T17:22:40;8.10;79.76
64937;SHT30;51452;47.698;19.050;2022-12-05T17:25:19;8.07;79.78
64937;SHT30;51452;47.698;19.050;2022-12-05T17:27:47;8.09;79.89
64937;SHT30;51452;47.698;19.050;2022-12-05T17:30:12;8.07;80.16
64937;SHT30;51452;47.698;19.050;2022-12-05T17:32:37;8.03;80.26
64937;SHT30;51452;47.698;19.050;2022-12-05T17:35:12;7.99;80.25
64937;SHT30;51452;47.698;19.050;2022-12-05T17:37:37;8.01;80.30
64937;SHT30;51452;47.698;19.050;2022-12-05T17:40:04;8.02;80.31
64937;SHT30;51452;47.698;19.050;2022-12-05T17:42:29;7.98;80.49
64937;SHT30;51452;47.698;19.050;2022-12-05T17:44:54;7.95;80.63
64937;SHT30;51452;47.698;19.050;2022-12-05T17:47:20;7.92;80.84
64937;SHT30;51452;47.698;19.050;2022-12-05T17:49:45;7.86;81.09
64937;SHT30;51452;47.698;19.050;2022-12-05T17:52:10;7.86;81.17
64937;SHT30;51452;47.698;19.050;2022-12-05T17:54:36;7.83;81.33
64937;SHT30;51452;47.698;19.050;2022-12-05T17:57:01;7.85;81.35
64937;SHT30;51452;47.698;19.050;2022-12-05T17:59:27;7.82;81.53
64937;SHT30;51452;47.698;19.050;2022-12-05T18:01:52;7.79;81.58
64937;SHT30;51452;47.698;19.050;2022-12-05T18:04:17;7.77;81.78
64937;SHT30;51452;47.698;19.050;2022-12-05T18:06:43;7.82;81.80
64937;SHT30;51452;47.698;19.050;2022-12-05T18:09:08;7.92;81.53
64937;SHT30;51452;47.698;19.050;2022-12-05T18:11:34;7.93;81.41
64937;SHT30;51452;47.698;19.050;2022-12-05T18:13:59;7.96;81.44
64937;SHT30;51452;47.698;19.050;2022-12-05T18:16:24;7.99;81.33
64937;SHT30;51452;47.698;19.050;2022-12-05T18:18:49;8.01;81.38
64937;SHT30;51452;47.698;19.050;2022-12-05T18:21:15;7.93;81.76
64937;SHT30;51452;47.698;19.050;2022-12-05T18:23:40;7.86;81.99
64937;SHT30;51452;47.698;19.050;2022-12-05T18:26:08;7.85;82.12
64937;SHT30;51452;47.698;19.050;2022-12-05T18:28:35;7.86;82.08
64937;SHT30;51452;47.698;19.050;2022-12-05T18:33:32;7.91;82.15
64937;SHT30;51452;47.698;19.050;2022-12-05T18:36:03;7.88;82.10
64937;SHT30;51452;47.698;19.050;2022-12-05T18:38:28;7.86;82.27
64937;SHT30;51452;47.698;19.050;2022-12-05T18:40:58;7.85;82.31
64937;SHT30;51452;47.698;19.050;2022-12-05T18:43:23;7.88;82.45
64937;SHT30;51452;47.698;19.050;2022-12-05T18:45:56;7.95;82.03
64937;SHT30;51452;47.698;19.050;2022-12-05T18:48:22;8.01;82.09
64937;SHT30;51452;47.698;19.050;2022-12-05T18:50:48;7.98;82.22
64937;SHT30;51452;47.698;19.050;2022-12-05T18:53:13;7.99;82.12
64937;SHT30;51452;47.698;19.050;2022-12-05T18:55:38;7.99;82.12
64937;SHT30;51452;47.698;19.050;2022-12-05T18:58:04;7.99;82.28